Aviation Digital Data Service (ADDS)

Output produced by METARs form (1130 UTC 17 June 2019)
found at http://www.aviationweather.gov/metar/data/
 
Forecast for: MKJP (KINGSTON/NORMAN , JM)
Text: TAF MKJP 171115Z 1712/1812 15023KT 9999 FEW022
Forecast period: 1200 UTC 17 June 2019 to 0000 UTC 18 June 2019
Forecast type: FROM: standard forecast or significant change
Winds: from the SSE (150 degrees) at 26 MPH (23 knots; 11.8 m/s)
Visibility: 6 or more miles 10+ km)
Ceiling: at least 12,000 feet AGL
Clouds: few clouds at 2200 feet AGL
Weather: no significant weather forecast for this period
Text: BECMG 1800/1802 11013KT
Forecast period: 0000 to 1200 UTC 18 June 2019
Forecast type: BECOMING: Conditions expected to become as follows by 0200 UTC 18 June 2019
Winds: from the ESE (110 degrees) at 15 MPH (13 knots; 6.7 m/s)
Visibility: 6 or more miles 10+ km)
Ceiling: at least 12,000 feet AGL
Clouds: few clouds at 2200 feet AGL
Weather: no significant weather forecast for this period